sensor_id;sensor_type;location;lat;lon;timestamp;pressure;altitude;pressure_sealevel;temperature;humidity
39729;BME280;25402;42.004;23.088;2024-03-17T00:00:47;97663.09;;;7.59;47.51
39729;BME280;25402;42.004;23.088;2024-03-17T00:03:13;97655.84;;;7.52;47.55
39729;BME280;25402;42.004;23.088;2024-03-17T00:05:40;97652.16;;;7.53;47.46
39729;BME280;25402;42.004;23.088;2024-03-17T00:08:07;97650.94;;;7.47;47.47
39729;BME280;25402;42.004;23.088;2024-03-17T00:10:34;97638.47;;;7.38;47.58
39729;BME280;25402;42.004;23.088;2024-03-17T00:13:01;97662.56;;;7.48;47.56
39729;BME280;25402;42.004;23.088;2024-03-17T00:15:28;97639.31;;;7.39;47.66
39729;BME280;25402;42.004;23.088;2024-03-17T00:17:54;97642.19;;;7.37;47.73
39729;BME280;25402;42.004;23.088;2024-03-17T00:20:21;97641.34;;;7.37;47.68
39729;BME280;25402;42.004;23.088;2024-03-17T00:22:47;97654.97;;;7.43;47.80
39729;BME280;25402;42.004;23.088;2024-03-17T00:25:16;97657.16;;;7.40;47.91
39729;BME280;25402;42.004;23.088;2024-03-17T00:27:43;97661.19;;;7.44;47.75
39729;BME280;25402;42.004;23.088;2024-03-17T00:30:11;97670.25;;;7.35;47.87
39729;BME280;25402;42.004;23.088;2024-03-17T00:32:39;97657.81;;;7.34;47.65
39729;BME280;25402;42.004;23.088;2024-03-17T00:35:07;97652.91;;;7.29;47.27
39729;BME280;25402;42.004;23.088;2024-03-17T00:37:33;97652.88;;;7.21;47.17
39729;BME280;25402;42.004;23.088;2024-03-17T00:40:00;97664.34;;;7.31;47.18
39729;BME280;25402;42.004;23.088;2024-03-17T00:42:29;97655.72;;;7.19;47.09
39729;BME280;25402;42.004;23.088;2024-03-17T00:44:56;97660.78;;;7.22;47.21
39729;BME280;25402;42.004;23.088;2024-03-17T00:47:22;97663.81;;;7.27;47.36
39729;BME280;25402;42.004;23.088;2024-03-17T00:49:49;97656.25;;;7.23;47.34
39729;BME280;25402;42.004;23.088;2024-03-17T00:52:15;97661.97;;;7.28;47.47
39729;BME280;25402;42.004;23.088;2024-03-17T00:54:43;97660.66;;;7.32;47.47
39729;BME280;25402;42.004;23.088;2024-03-17T00:57:09;97656.25;;;7.23;47.54
39729;BME280;25402;42.004;23.088;2024-03-17T00:59:37;97666.88;;;7.33;47.47
39729;BME280;25402;42.004;23.088;2024-03-17T01:02:04;97660.13;;;7.28;47.46
39729;BME280;25402;42.004;23.088;2024-03-17T01:04:31;97666.88;;;7.33;47.52
39729;BME280;25402;42.004;23.088;2024-03-17T01:06:59;97663.03;;;7.35;47.49
39729;BME280;25402;42.004;23.088;2024-03-17T01:09:28;97665.03;;;7.41;47.32
39729;BME280;25402;42.004;23.088;2024-03-17T01:11:54;97666.41;;;7.45;47.54
39729;BME280;25402;42.004;23.088;2024-03-17T01:14:22;97657.66;;;7.43;47.65
39729;BME280;25402;42.004;23.088;2024-03-17T01:16:50;97657.50;;;7.45;47.58
39729;BME280;25402;42.004;23.088;2024-03-17T01:19:17;97657.66;;;7.43;47.47
39729;BME280;25402;42.004;23.088;2024-03-17T01:21:43;97638.47;;;7.38;47.43
39729;BME280;25402;42.004;23.088;2024-03-17T01:24:10;97654.47;;;7.48;47.34
39729;BME280;25402;42.004;23.088;2024-03-17T01:26:36;97661.22;;;7.52;47.50
39729;BME280;25402;42.004;23.088;2024-03-17T01:29:04;97658.69;;;7.50;47.50
39729;BME280;25402;42.004;23.088;2024-03-17T01:31:30;97663.75;;;7.53;47.54
39729;BME280;25402;42.004;23.088;2024-03-17T01:33:59;97660.72;;;7.56;47.52
39729;BME280;25402;42.004;23.088;2024-03-17T01:36:25;97658.69;;;7.58;47.32
39729;BME280;25402;42.004;23.088;2024-03-17T01:38:52;97660.38;;;7.59;47.33
39729;BME280;25402;42.004;23.088;2024-03-17T01:41:19;97651.47;;;7.51;47.52
39729;BME280;25402;42.004;23.088;2024-03-17T01:43:46;97663.75;;;7.61;47.29
39729;BME280;25402;42.004;23.088;2024-03-17T01:46:14;97654.69;;;7.62;47.20
39729;BME280;25402;42.004;23.088;2024-03-17T01:48:42;97651.31;;;7.60;46.97
39729;BME280;25402;42.004;23.088;2024-03-17T01:51:11;97657.06;;;7.66;46.95
39729;BME280;25402;42.004;23.088;2024-03-17T01:53:40;97658.53;;;7.60;47.05
39729;BME280;25402;42.004;23.088;2024-03-17T01:56:10;97656.53;;;7.62;47.04
39729;BME280;25402;42.004;23.088;2024-03-17T01:58:37;97666.97;;;7.65;46.85
39729;BME280;25402;42.004;23.088;2024-03-17T02:01:04;97670.16;;;7.60;46.60
39729;BME280;25402;42.004;23.088;2024-03-17T02:03:32;97666.09;;;7.48;46.92
39729;BME280;25402;42.004;23.088;2024-03-17T02:05:58;97668.47;;;7.51;46.98
39729;BME280;25402;42.004;23.088;2024-03-17T02:08:27;97646.56;;;7.38;47.06
39729;BME280;25402;42.004;23.088;2024-03-17T02:10:54;97649.25;;;7.38;46.73
39729;BME280;25402;42.004;23.088;2024-03-17T02:13:20;97648.91;;;7.41;47.21
39729;BME280;25402;42.004;23.088;2024-03-17T02:15:48;97664.09;;;7.50;47.03
39729;BME280;25402;42.004;23.088;2024-03-17T02:18:14;97644.88;;;7.45;47.27
39729;BME280;25402;42.004;23.088;2024-03-17T02:20:41;97656.00;;;7.50;47.23
39729;BME280;25402;42.004;23.088;2024-03-17T02:23:27;97645.06;;;7.52;47.24
39729;BME280;25402;42.004;23.088;2024-03-17T02:25:54;97647.09;;;7.50;47.22
39729;BME280;25402;42.004;23.088;2024-03-17T02:28:20;97660.72;;;7.56;47.14
39729;BME280;25402;42.004;23.088;2024-03-17T02:30:47;97661.06;;;7.53;47.47
39729;BME280;25402;42.004;23.088;2024-03-17T02:33:13;97643.19;;;7.44;47.56
39729;BME280;25402;42.004;23.088;2024-03-17T02:35:40;97664.59;;;7.54;47.36
39729;BME280;25402;42.004;23.088;2024-03-17T02:38:06;97650.63;;;7.50;47.24
39729;BME280;25402;42.004;23.088;2024-03-17T02:40:36;97646.88;;;7.43;47.24
39729;BME280;25402;42.004;23.088;2024-03-17T02:43:02;97661.56;;;7.57;47.14
39729;BME280;25402;42.004;23.088;2024-03-17T02:45:29;97632.41;;;7.36;47.10
39729;BME280;25402;42.004;23.088;2024-03-17T02:47:57;97662.06;;;7.52;46.70
39729;BME280;25402;42.004;23.088;2024-03-17T02:50:24;97661.75;;;7.55;46.66
39729;BME280;25402;42.004;23.088;2024-03-17T02:52:51;97664.78;;;7.60;46.54
39729;BME280;25402;42.004;23.088;2024-03-17T02:55:18;97666.09;;;7.56;46.66
39729;BME280;25402;42.004;23.088;2024-03-17T02:57:47;97640.50;;;7.44;46.59
39729;BME280;25402;42.004;23.088;2024-03-17T03:00:14;97653.00;;;7.53;46.58
39729;BME280;25402;42.004;23.088;2024-03-17T03:02:41;97659.06;;;7.55;46.39
39729;BME280;25402;42.004;23.088;2024-03-17T03:05:09;97658.03;;;7.56;46.46
39729;BME280;25402;42.004;23.088;2024-03-17T03:07:36;97661.75;;;7.55;46.30
39729;BME280;25402;42.004;23.088;2024-03-17T03:10:04;97660.06;;;7.54;46.12
39729;BME280;25402;42.004;23.088;2024-03-17T03:12:31;97651.63;;;7.49;46.27
39729;BME280;25402;42.004;23.088;2024-03-17T03:14:59;97653.63;;;7.47;46.50
39729;BME280;25402;42.004;23.088;2024-03-17T03:17:27;97658.38;;;7.53;46.32
39729;BME280;25402;42.004;23.088;2024-03-17T03:19:54;97663.41;;;7.56;46.35
39729;BME280;25402;42.004;23.088;2024-03-17T03:22:22;97642.88;;;7.47;46.32
39729;BME280;25402;42.004;23.088;2024-03-17T03:24:52;97667.13;;;7.55;46.27
39729;BME280;25402;42.004;23.088;2024-03-17T03:27:19;97667.47;;;7.52;46.31
39729;BME280;25402;42.004;23.088;2024-03-17T03:29:46;97666.63;;;7.52;46.15
39729;BME280;25402;42.004;23.088;2024-03-17T03:32:15;97667.28;;;7.54;46.26
39729;BME280;25402;42.004;23.088;2024-03-17T03:34:43;97660.91;;;7.55;46.27
39729;BME280;25402;42.004;23.088;2024-03-17T03:37:10;97651.25;;;7.44;46.37
39729;BME280;25402;42.004;23.088;2024-03-17T03:39:37;97672.31;;;7.57;46.32
39729;BME280;25402;42.004;23.088;2024-03-17T03:42:04;97663.94;;;7.60;46.42
39729;BME280;25402;42.004;23.088;2024-03-17T03:44:31;97668.81;;;7.64;46.57
39729;BME280;25402;42.004;23.088;2024-03-17T03:46:58;97673.91;;;7.68;46.54
39729;BME280;25402;42.004;23.088;2024-03-17T03:49:28;97680.28;;;7.67;46.75
39729;BME280;25402;42.004;23.088;2024-03-17T03:51:56;97677.28;;;7.70;46.68
39729;BME280;25402;42.004;23.088;2024-03-17T03:54:23;97684.66;;;7.76;46.71
39729;BME280;25402;42.004;23.088;2024-03-17T03:56:51;97687.19;;;7.77;46.72
39729;BME280;25402;42.004;23.088;2024-03-17T03:59:19;97676.09;;;7.80;46.73
39729;BME280;25402;42.004;23.088;2024-03-17T04:01:47;97677.78;;;7.81;46.66
39729;BME280;25402;42.004;23.088;2024-03-17T04:04:14;97676.94;;;7.81;46.60
39729;BME280;25402;42.004;23.088;2024-03-17T04:06:44;97684.69;;;7.84;46.55
39729;BME280;25402;42.004;23.088;2024-03-17T04:09:11;97681.31;;;7.82;46.59
39729;BME280;25402;42.004;23.088;2024-03-17T04:11:38;97678.44;;;7.75;46.72
39729;BME280;25402;42.004;23.088;2024-03-17T04:14:05;97694.44;;;7.77;46.71
39729;BME280;25402;42.004;23.088;2024-03-17T04:16:32;97695.44;;;7.76;46.74
39729;BME280;25402;42.004;23.088;2024-03-17T04:18:59;97697.13;;;7.77;46.63
39729;BME280;25402;42.004;23.088;2024-03-17T04:21:26;97689.72;;;7.71;46.43
39729;BME280;25402;42.004;23.088;2024-03-17T04:23:54;97704.53;;;7.75;46.67
39729;BME280;25402;42.004;23.088;2024-03-17T04:26:21;97699.81;;;7.69;46.46
39729;BME280;25402;42.004;23.088;2024-03-17T04:28:48;97700.50;;;7.71;46.47
39729;BME280;25402;42.004;23.088;2024-03-17T04:31:15;97714.63;;;7.73;46.50
39729;BME280;25402;42.004;23.088;2024-03-17T04:33:43;97680.91;;;7.52;46.28
39729;BME280;25402;42.004;23.088;2024-03-17T04:36:10;97704.84;;;7.63;46.40
39729;BME280;25402;42.004;23.088;2024-03-17T04:38:39;97723.03;;;7.70;46.38
39729;BME280;25402;42.004;23.088;2024-03-17T04:41:07;97707.53;;;7.55;46.41
39729;BME280;25402;42.004;23.088;2024-03-17T04:43:35;97721.84;;;7.64;46.56
39729;BME280;25402;42.004;23.088;2024-03-17T04:46:03;97711.53;;;7.59;46.53
39729;BME280;25402;42.004;23.088;2024-03-17T04:48:31;97730.75;;;7.64;46.53
39729;BME280;25402;42.004;23.088;2024-03-17T04:50:58;97729.91;;;7.64;46.71
39729;BME280;25402;42.004;23.088;2024-03-17T04:53:26;97714.56;;;7.56;46.76
39729;BME280;25402;42.004;23.088;2024-03-17T04:55:59;97734.81;;;7.69;46.79
39729;BME280;25402;42.004;23.088;2024-03-17T04:58:28;97719.63;;;7.59;46.83
39729;BME280;25402;42.004;23.088;2024-03-17T05:00:55;97723.84;;;7.62;46.83
39729;BME280;25402;42.004;23.088;2024-03-17T05:03:22;97737.84;;;7.66;46.92
39729;BME280;25402;42.004;23.088;2024-03-17T05:05:58;97744.59;;;7.78;46.76
39729;BME280;25402;42.004;23.088;2024-03-17T05:08:27;97734.84;;;7.77;46.76
39729;BME280;25402;42.004;23.088;2024-03-17T05:10:58;97730.63;;;7.74;46.83
39729;BME280;25402;42.004;23.088;2024-03-17T05:13:27;97735.56;;;7.87;46.68
39729;BME280;25402;42.004;23.088;2024-03-17T05:15:55;97745.66;;;7.85;46.88
39729;BME280;25402;42.004;23.088;2024-03-17T05:18:22;97723.88;;;7.70;46.80
39729;BME280;25402;42.004;23.088;2024-03-17T05:20:57;97750.03;;;7.94;46.78
39729;BME280;25402;42.004;23.088;2024-03-17T05:23:26;97749.19;;;7.93;46.82
39729;BME280;25402;42.004;23.088;2024-03-17T05:25:54;97753.56;;;7.94;46.89
39729;BME280;25402;42.004;23.088;2024-03-17T05:28:22;97744.97;;;7.91;46.83
39729;BME280;25402;42.004;23.088;2024-03-17T05:30:51;97749.88;;;7.95;46.56
39729;BME280;25402;42.004;23.088;2024-03-17T05:33:19;97765.41;;;8.02;46.46
39729;BME280;25402;42.004;23.088;2024-03-17T05:35:49;97752.41;;;7.97;46.31
39729;BME280;25402;42.004;23.088;2024-03-17T05:38:18;97755.63;;;8.09;46.30
39729;BME280;25402;42.004;23.088;2024-03-17T05:40:55;97762.56;;;8.19;46.04
39729;BME280;25402;42.004;23.088;2024-03-17T05:43:24;97758.22;;;8.26;45.79
39729;BME280;25402;42.004;23.088;2024-03-17T05:45:54;97768.50;;;8.31;45.82
39729;BME280;25402;42.004;23.088;2024-03-17T05:48:21;97766.66;;;8.31;45.78
39729;BME280;25402;42.004;23.088;2024-03-17T05:50:49;97759.91;;;8.36;45.75
39729;BME280;25402;42.004;23.088;2024-03-17T05:53:18;97761.44;;;8.38;45.72
39729;BME280;25402;42.004;23.088;2024-03-17T05:55:45;97760.41;;;8.39;45.61
39729;BME280;25402;42.004;23.088;2024-03-17T05:58:12;97770.72;;;8.52;45.56
39729;BME280;25402;42.004;23.088;2024-03-17T06:00:40;97762.31;;;8.47;45.44
39729;BME280;25402;42.004;23.088;2024-03-17T06:03:09;97757.56;;;8.57;45.24
39729;BME280;25402;42.004;23.088;2024-03-17T06:05:38;97776.78;;;8.70;44.75
39729;BME280;25402;42.004;23.088;2024-03-17T06:08:06;97756.75;;;8.64;44.82
39729;BME280;25402;42.004;23.088;2024-03-17T06:10:35;97779.16;;;8.89;44.48
39729;BME280;25402;42.004;23.088;2024-03-17T06:13:03;97770.03;;;8.98;44.25
39729;BME280;25402;42.004;23.088;2024-03-17T06:15:30;97764.28;;;9.01;43.90
39729;BME280;25402;42.004;23.088;2024-03-17T06:17:57;97778.81;;;9.25;43.66
39729;BME280;25402;42.004;23.088;2024-03-17T06:20:28;97777.53;;;9.52;43.48
39729;BME280;25402;42.004;23.088;2024-03-17T06:22:55;97775.13;;;9.73;42.57
39729;BME280;25402;42.004;23.088;2024-03-17T06:25:23;97788.63;;;10.12;41.87
39729;BME280;25402;42.004;23.088;2024-03-17T06:27:50;97780.91;;;10.32;40.92
39729;BME280;25402;42.004;23.088;2024-03-17T06:30:17;97792.31;;;10.42;40.46
39729;BME280;25402;42.004;23.088;2024-03-17T06:32:46;97794.84;;;10.43;39.88
39729;BME280;25402;42.004;23.088;2024-03-17T06:35:13;97796.19;;;10.48;39.42
39729;BME280;25402;42.004;23.088;2024-03-17T06:37:42;97786.97;;;10.57;39.23
39729;BME280;25402;42.004;23.088;2024-03-17T06:40:13;97792.09;;;10.74;38.83
39729;BME280;25402;42.004;23.088;2024-03-17T06:42:40;97800.03;;;10.99;38.36
39729;BME280;25402;42.004;23.088;2024-03-17T06:45:08;97794.31;;;11.17;37.83
39729;BME280;25402;42.004;23.088;2024-03-17T06:47:35;97794.72;;;11.28;37.21
39729;BME280;25402;42.004;23.088;2024-03-17T06:50:02;97794.34;;;11.46;37.59
39729;BME280;25402;42.004;23.088;2024-03-17T06:52:30;97791.00;;;11.59;37.23
39729;BME280;25402;42.004;23.088;2024-03-17T06:54:58;97767.75;;;11.64;36.84
39729;BME280;25402;42.004;23.088;2024-03-17T06:57:27;97809.16;;;11.88;36.31
39729;BME280;25402;42.004;23.088;2024-03-17T06:59:54;97799.50;;;12.00;36.31
39729;BME280;25402;42.004;23.088;2024-03-17T07:02:22;97801.31;;;11.93;36.65
39729;BME280;25402;42.004;23.088;2024-03-17T07:04:49;97805.69;;;11.94;36.53
39729;BME280;25402;42.004;23.088;2024-03-17T07:07:16;97791.16;;;12.16;36.21
39729;BME280;25402;42.004;23.088;2024-03-17T07:09:43;97788.34;;;12.24;36.21
39729;BME280;25402;42.004;23.088;2024-03-17T07:12:14;97799.22;;;12.45;35.73
39729;BME280;25402;42.004;23.088;2024-03-17T07:14:41;97795.59;;;12.60;35.65
39729;BME280;25402;42.004;23.088;2024-03-17T07:17:08;97798.22;;;12.68;35.20
39729;BME280;25402;42.004;23.088;2024-03-17T07:19:36;97792.44;;;12.71;35.14
39729;BME280;25402;42.004;23.088;2024-03-17T07:22:04;97791.72;;;12.47;35.50
39729;BME280;25402;42.004;23.088;2024-03-17T07:24:31;97801.03;;;12.60;35.50
39729;BME280;25402;42.004;23.088;2024-03-17T07:26:59;97798.22;;;12.68;35.57
39729;BME280;25402;42.004;23.088;2024-03-17T07:29:28;97793.72;;;12.75;35.13
39729;BME280;25402;42.004;23.088;2024-03-17T07:31:55;97795.72;;;12.88;35.05
39729;BME280;25402;42.004;23.088;2024-03-17T07:34:22;97772.13;;;12.88;34.78
39729;BME280;25402;42.004;23.088;2024-03-17T07:36:49;97793.22;;;13.14;34.44
39729;BME280;25402;42.004;23.088;2024-03-17T07:39:17;97789.03;;;13.11;34.71
39729;BME280;25402;42.004;23.088;2024-03-17T07:41:44;97783.56;;;13.33;34.52
39729;BME280;25402;42.004;23.088;2024-03-17T07:44:11;97781.50;;;13.35;33.58
39729;BME280;25402;42.004;23.088;2024-03-17T07:46:40;97772.94;;;13.38;33.94
39729;BME280;25402;42.004;23.088;2024-03-17T07:49:07;97766.91;;;13.42;33.26
39729;BME280;25402;42.004;23.088;2024-03-17T07:51:34;97776.44;;;13.53;33.71
39729;BME280;25402;42.004;23.088;2024-03-17T07:54:01;97776.31;;;13.68;33.64
39729;BME280;25402;42.004;23.088;2024-03-17T07:56:29;97779.94;;;13.88;33.76
39729;BME280;25402;42.004;23.088;2024-03-17T07:58:56;97775.41;;;14.02;33.32
39729;BME280;25402;42.004;23.088;2024-03-17T08:01:23;97783.00;;;14.13;33.28
39729;BME280;25402;42.004;23.088;2024-03-17T08:03:52;97771.50;;;14.11;33.41
39729;BME280;25402;42.004;23.088;2024-03-17T08:06:21;97776.03;;;14.04;33.29
39729;BME280;25402;42.004;23.088;2024-03-17T08:08:50;97775.09;;;14.24;33.11
39729;BME280;25402;42.004;23.088;2024-03-17T08:11:17;97762.28;;;14.12;32.54
39729;BME280;25402;42.004;23.088;2024-03-17T08:13:44;97768.16;;;14.15;32.69
39729;BME280;25402;42.004;23.088;2024-03-17T08:16:12;97761.81;;;14.02;32.52
39729;BME280;25402;42.004;23.088;2024-03-17T08:18:39;97764.31;;;14.03;32.48
39729;BME280;25402;42.004;23.088;2024-03-17T08:21:08;97746.72;;;13.93;33.02
39729;BME280;25402;42.004;23.088;2024-03-17T08:23:36;97732.03;;;13.87;33.18
39729;BME280;25402;42.004;23.088;2024-03-17T08:26:07;97755.81;;;14.13;32.98
39729;BME280;25402;42.004;23.088;2024-03-17T08:28:34;97757.09;;;14.23;32.56
39729;BME280;25402;42.004;23.088;2024-03-17T08:31:02;97759.50;;;14.46;32.58
39729;BME280;25402;42.004;23.088;2024-03-17T08:33:30;97741.50;;;14.65;32.48
39729;BME280;25402;42.004;23.088;2024-03-17T08:36:00;97751.19;;;14.94;32.45
39729;BME280;25402;42.004;23.088;2024-03-17T08:38:30;97743.88;;;15.01;31.86
39729;BME280;25402;42.004;23.088;2024-03-17T08:41:01;97739.03;;;14.90;31.25
39729;BME280;25402;42.004;23.088;2024-03-17T08:43:29;97726.28;;;15.10;31.17
39729;BME280;25402;42.004;23.088;2024-03-17T08:45:56;97719.16;;;15.03;30.69
39729;BME280;25402;42.004;23.088;2024-03-17T08:48:27;97729.16;;;14.76;30.65
39729;BME280;25402;42.004;23.088;2024-03-17T08:50:55;97708.19;;;14.96;30.77
39729;BME280;25402;42.004;23.088;2024-03-17T08:53:23;97704.25;;;15.18;30.74
39729;BME280;25402;42.004;23.088;2024-03-17T08:55:52;97710.69;;;15.44;30.57
39729;BME280;25402;42.004;23.088;2024-03-17T08:58:19;97712.75;;;15.61;30.39
39729;BME280;25402;42.004;23.088;2024-03-17T09:00:47;97696.38;;;15.68;30.08
39729;BME280;25402;42.004;23.088;2024-03-17T09:03:15;97704.94;;;15.85;30.49
39729;BME280;25402;42.004;23.088;2024-03-17T09:05:43;97711.97;;;16.06;30.74
39729;BME280;25402;42.004;23.088;2024-03-17T09:08:15;97706.47;;;16.19;30.02
39729;BME280;25402;42.004;23.088;2024-03-17T09:10:43;97702.28;;;16.16;29.96
39729;BME280;25402;42.004;23.088;2024-03-17T09:13:13;97700.94;;;16.32;29.87
39729;BME280;25402;42.004;23.088;2024-03-17T09:15:49;97706.94;;;16.41;29.08
39729;BME280;25402;42.004;23.088;2024-03-17T09:18:16;97697.03;;;16.53;28.96
39729;BME280;25402;42.004;23.088;2024-03-17T09:20:43;97684.91;;;16.74;29.32
39729;BME280;25402;42.004;23.088;2024-03-17T09:23:11;97683.22;;;16.73;29.19
39729;BME280;25402;42.004;23.088;2024-03-17T09:25:39;97683.47;;;16.96;28.64
39729;BME280;25402;42.004;23.088;2024-03-17T09:28:07;97669.72;;;17.02;28.48
39729;BME280;25402;42.004;23.088;2024-03-17T09:30:36;97666.00;;;17.22;28.32
39729;BME280;25402;42.004;23.088;2024-03-17T09:33:03;97665.34;;;17.45;27.68
39729;BME280;25402;42.004;23.088;2024-03-17T09:35:30;97670.00;;;17.62;27.79
39729;BME280;25402;42.004;23.088;2024-03-17T09:37:57;97669.06;;;17.68;27.03
39729;BME280;25402;42.004;23.088;2024-03-17T09:40:25;97672.44;;;17.89;26.87
39729;BME280;25402;42.004;23.088;2024-03-17T09:42:52;97661.69;;;18.05;26.63
39729;BME280;25402;42.004;23.088;2024-03-17T09:45:19;97650.72;;;18.05;26.72
39729;BME280;25402;42.004;23.088;2024-03-17T09:47:48;97665.47;;;18.04;27.03
39729;BME280;25402;42.004;23.088;2024-03-17T09:50:16;97652.28;;;17.28;25.99
39729;BME280;25402;42.004;23.088;2024-03-17T09:52:45;97642.59;;;16.83;26.93
39729;BME280;25402;42.004;23.088;2024-03-17T09:55:16;97627.59;;;16.92;27.24
39729;BME280;25402;42.004;23.088;2024-03-17T09:57:44;97632.53;;;17.26;27.16
39729;BME280;25402;42.004;23.088;2024-03-17T10:00:14;97640.34;;;17.59;26.29
39729;BME280;25402;42.004;23.088;2024-03-17T10:02:42;97646.03;;;17.76;26.87
39729;BME280;25402;42.004;23.088;2024-03-17T10:05:21;97648.41;;;17.91;26.55
39729;BME280;25402;42.004;23.088;2024-03-17T10:07:49;97641.78;;;17.80;26.16
39729;BME280;25402;42.004;23.088;2024-03-17T10:10:17;97634.13;;;17.89;25.87
39729;BME280;25402;42.004;23.088;2024-03-17T10:12:49;97649.91;;;18.05;25.20
39729;BME280;25402;42.004;23.088;2024-03-17T10:15:17;97636.25;;;18.17;23.80
39729;BME280;25402;42.004;23.088;2024-03-17T10:17:44;97617.00;;;18.35;23.78
39729;BME280;25402;42.004;23.088;2024-03-17T10:20:13;97624.13;;;18.78;23.67
39729;BME280;25402;42.004;23.088;2024-03-17T10:23:01;97612.09;;;18.79;22.30
39729;BME280;25402;42.004;23.088;2024-03-17T10:25:31;97624.13;;;18.78;22.27
39729;BME280;25402;42.004;23.088;2024-03-17T10:27:59;97617.22;;;18.75;21.88
39729;BME280;25402;42.004;23.088;2024-03-17T10:30:27;97617.25;;;19.10;22.16
39729;BME280;25402;42.004;23.088;2024-03-17T10:32:56;97617.34;;;18.92;21.16
39729;BME280;25402;42.004;23.088;2024-03-17T10:35:29;97624.53;;;18.39;21.80
39729;BME280;25402;42.004;23.088;2024-03-17T10:37:58;97588.75;;;18.76;20.88
39729;BME280;25402;42.004;23.088;2024-03-17T10:40:27;97605.94;;;19.18;20.92
39729;BME280;25402;42.004;23.088;2024-03-17T10:42:57;97610.00;;;19.16;20.97
39729;BME280;25402;42.004;23.088;2024-03-17T10:45:26;97596.50;;;18.79;20.92
39729;BME280;25402;42.004;23.088;2024-03-17T10:47:59;97608.59;;;18.07;21.05
39729;BME280;25402;42.004;23.088;2024-03-17T10:50:30;97616.13;;;17.63;21.65
39729;BME280;25402;42.004;23.088;2024-03-17T10:53:04;97603.31;;;17.93;21.72
39729;BME280;25402;42.004;23.088;2024-03-17T10:55:44;97608.56;;;18.36;21.76
39729;BME280;25402;42.004;23.088;2024-03-17T10:58:22;97617.81;;;18.24;21.32
39729;BME280;25402;42.004;23.088;2024-03-17T11:00:50;97602.09;;;17.89;21.37
39729;BME280;25402;42.004;23.088;2024-03-17T11:03:18;97611.59;;;17.68;21.38
39729;BME280;25402;42.004;23.088;2024-03-17T11:05:48;97608.44;;;17.53;20.86
39729;BME280;25402;42.004;23.088;2024-03-17T11:08:17;97605.41;;;17.61;21.38
39729;BME280;25402;42.004;23.088;2024-03-17T11:10:51;97596.97;;;17.26;21.60
39729;BME280;25402;42.004;23.088;2024-03-17T11:13:24;97600.84;;;17.37;21.15
39729;BME280;25402;42.004;23.088;2024-03-17T11:15:51;97589.13;;;16.68;22.08
39729;BME280;25402;42.004;23.088;2024-03-17T11:18:35;97587.84;;;16.71;22.06
39729;BME280;25402;42.004;23.088;2024-03-17T11:21:04;97581.66;;;17.00;22.05
39729;BME280;25402;42.004;23.088;2024-03-17T11:23:36;97587.09;;;17.62;21.56
39729;BME280;25402;42.004;23.088;2024-03-17T11:26:06;97580.22;;;17.71;21.68
39729;BME280;25402;42.004;23.088;2024-03-17T11:28:51;97569.47;;;18.18;21.16
39729;BME280;25402;42.004;23.088;2024-03-17T11:31:43;97570.38;;;18.12;20.60
39729;BME280;25402;42.004;23.088;2024-03-17T11:34:28;97553.19;;;18.34;21.37
39729;BME280;25402;42.004;23.088;2024-03-17T11:36:55;97567.41;;;18.01;20.98
39729;BME280;25402;42.004;23.088;2024-03-17T11:39:53;97567.56;;;18.18;21.09
39729;BME280;25402;42.004;23.088;2024-03-17T11:42:24;97568.88;;;18.16;21.07
39729;BME280;25402;42.004;23.088;2024-03-17T11:44:59;97575.56;;;17.42;21.11
39729;BME280;25402;42.004;23.088;2024-03-17T11:47:39;97559.97;;;17.60;21.83
39729;BME280;25402;42.004;23.088;2024-03-17T11:50:08;97547.28;;;17.11;21.74
39729;BME280;25402;42.004;23.088;2024-03-17T11:52:36;97533.91;;;16.85;21.72
39729;BME280;25402;42.004;23.088;2024-03-17T11:55:03;97560.75;;;17.31;21.55
39729;BME280;25402;42.004;23.088;2024-03-17T11:57:32;97549.34;;;17.16;21.60
39729;BME280;25402;42.004;23.088;2024-03-17T11:59:58;97543.97;;;17.27;21.81
39729;BME280;25402;42.004;23.088;2024-03-17T12:02:29;97542.13;;;17.40;21.13
39729;BME280;25402;42.004;23.088;2024-03-17T12:04:58;97547.78;;;17.26;21.47
39729;BME280;25402;42.004;23.088;2024-03-17T12:07:25;97532.72;;;17.17;21.51
39729;BME280;25402;42.004;23.088;2024-03-17T12:09:54;97542.59;;;17.36;21.31
39729;BME280;25402;42.004;23.088;2024-03-17T12:12:23;97528.63;;;17.45;21.19
39729;BME280;25402;42.004;23.088;2024-03-17T12:14:51;97548.06;;;17.36;20.99
39729;BME280;25402;42.004;23.088;2024-03-17T12:17:21;97546.00;;;16.95;21.43
39729;BME280;25402;42.004;23.088;2024-03-17T12:19:48;97535.38;;;17.06;21.47
39729;BME280;25402;42.004;23.088;2024-03-17T12:22:17;97538.91;;;16.51;22.00
39729;BME280;25402;42.004;23.088;2024-03-17T12:24:48;97531.81;;;16.37;22.09
39729;BME280;25402;42.004;23.088;2024-03-17T12:27:17;97481.69;;;16.07;22.81
39729;BME280;25402;42.004;23.088;2024-03-17T12:29:44;97532.81;;;16.43;22.12
39729;BME280;25402;42.004;23.088;2024-03-17T12:32:14;97514.34;;;16.20;22.51
39729;BME280;25402;42.004;23.088;2024-03-17T12:34:42;97538.16;;;15.81;23.56
39729;BME280;25402;42.004;23.088;2024-03-17T12:37:16;97509.16;;;15.49;23.73
39729;BME280;25402;42.004;23.088;2024-03-17T12:39:42;97525.28;;;15.50;24.32
39729;BME280;25402;42.004;23.088;2024-03-17T12:42:10;97507.13;;;15.38;23.78
39729;BME280;25402;42.004;23.088;2024-03-17T12:44:39;97524.16;;;15.26;24.25
39729;BME280;25402;42.004;23.088;2024-03-17T12:47:14;97533.84;;;15.16;24.57
39729;BME280;25402;42.004;23.088;2024-03-17T12:49:44;97520.97;;;14.72;24.62
39729;BME280;25402;42.004;23.088;2024-03-17T12:52:18;97533.75;;;14.51;25.18
39729;BME280;25402;42.004;23.088;2024-03-17T12:54:45;97531.25;;;14.23;25.36
39729;BME280;25402;42.004;23.088;2024-03-17T12:57:42;97539.84;;;14.01;25.61
39729;BME280;25402;42.004;23.088;2024-03-17T13:00:27;97527.69;;;13.83;25.44
39729;BME280;25402;42.004;23.088;2024-03-17T13:03:03;97508.22;;;13.86;26.03